createdAt,value
2017-06-06T00:00:40.037Z,14.2
2017-06-06T00:01:20.723Z,14.2
2017-06-06T00:02:01.343Z,14.22
2017-06-06T00:02:41.895Z,14.22
2017-06-06T00:03:22.572Z,14.15
2017-06-06T00:04:03.119Z,14.2
2017-06-06T00:04:43.666Z,14.15
2017-06-06T00:05:25.425Z,14.15
2017-06-06T00:06:05.946Z,14.11
2017-06-06T00:06:46.553Z,14.15
2017-06-06T00:07:27.211Z,14.12
2017-06-06T00:08:07.776Z,14.2
2017-06-06T00:08:48.458Z,14.1
2017-06-06T00:09:29.117Z,14.1
2017-06-06T00:10:09.718Z,14.17
2017-06-06T00:10:50.383Z,14.1
2017-06-06T00:11:31.107Z,14.14
2017-06-06T00:12:11.691Z,14.03
2017-06-06T00:12:52.384Z,14
2017-06-06T00:13:32.985Z,14.04
2017-06-06T00:14:13.529Z,14.04
2017-06-06T00:14:54.113Z,14.03
2017-06-06T00:15:34.712Z,14.03
2017-06-06T00:16:15.235Z,13.99
2017-06-06T00:16:55.824Z,14.03
2017-06-06T00:17:36.437Z,14.03
2017-06-06T00:18:17.121Z,14.04
2017-06-06T00:18:57.638Z,14.04
2017-06-06T00:19:38.259Z,14.03
2017-06-06T00:20:18.851Z,13.93
2017-06-06T00:20:59.425Z,14.03
2017-06-06T00:21:39.957Z,13.96
2017-06-06T00:22:20.539Z,13.97
2017-06-06T00:23:01.455Z,13.95
2017-06-06T00:23:42.034Z,13.93
2017-06-06T00:24:22.573Z,13.93
2017-06-06T00:25:03.160Z,13.97
2017-06-06T00:25:43.712Z,13.97
2017-06-06T00:26:24.294Z,13.87
2017-06-06T00:27:04.919Z,13.87
2017-06-06T00:27:45.462Z,13.93
2017-06-06T00:28:26.047Z,13.95
2017-06-06T00:29:06.678Z,13.78
2017-06-06T00:29:47.338Z,13.79
2017-06-06T00:30:27.995Z,13.85
2017-06-06T00:31:08.608Z,13.85
2017-06-06T00:31:49.154Z,13.86
2017-06-06T00:32:29.709Z,13.87
2017-06-06T00:33:10.357Z,13.87
2017-06-06T00:33:51.011Z,13.89
2017-06-06T00:34:31.530Z,13.85
2017-06-06T00:35:14.136Z,13.83
2017-06-06T00:35:54.775Z,13.86
2017-06-06T00:36:35.363Z,13.77
2017-06-06T00:37:15.923Z,13.74
2017-06-06T00:37:56.508Z,13.78
2017-06-06T00:38:38.097Z,13.81
2017-06-06T00:39:21.258Z,13.78
2017-06-06T00:40:01.844Z,13.79
2017-06-06T00:40:42.497Z,13.68
2017-06-06T00:41:23.080Z,13.68
2017-06-06T00:42:03.668Z,13.78
2017-06-06T00:42:44.303Z,13.77
2017-06-06T00:43:24.891Z,13.7
2017-06-06T00:44:05.497Z,13.7
2017-06-06T00:44:46.113Z,13.72
2017-06-06T00:45:26.756Z,13.72
2017-06-06T00:46:07.316Z,13.68
2017-06-06T00:46:47.859Z,13.68
2017-06-06T00:47:28.411Z,13.7
2017-06-06T00:48:09.007Z,13.7
2017-06-06T00:48:50.655Z,13.67
2017-06-06T00:49:31.293Z,13.67
2017-06-06T00:50:11.942Z,13.7
2017-06-06T00:50:52.572Z,13.67
2017-06-06T00:51:33.100Z,13.68
2017-06-06T00:52:13.730Z,13.71
2017-06-06T00:52:54.279Z,13.68
2017-06-06T00:53:34.878Z,13.72
2017-06-06T00:54:15.444Z,13.62
2017-06-06T00:54:56.035Z,13.54
2017-06-06T00:55:36.664Z,13.6
2017-06-06T00:56:17.309Z,13.63
2017-06-06T00:56:57.968Z,13.6
2017-06-06T00:57:38.615Z,13.57
2017-06-06T00:58:19.158Z,13.56
2017-06-06T00:58:59.731Z,13.56
2017-06-06T00:59:40.348Z,13.53
2017-06-06T01:00:20.921Z,13.57
2017-06-06T01:01:01.560Z,13.63
2017-06-06T01:01:42.103Z,13.59
2017-06-06T01:02:22.667Z,13.59
2017-06-06T01:03:04.254Z,13.56
2017-06-06T01:03:46.552Z,13.5
2017-06-06T01:04:27.185Z,13.53
2017-06-06T01:05:07.741Z,13.5
2017-06-06T01:05:48.300Z,13.49
2017-06-06T01:06:28.978Z,13.49
2017-06-06T01:07:09.591Z,13.5
2017-06-06T01:07:50.259Z,13.49
2017-06-06T01:08:30.908Z,13.52
2017-06-06T01:09:11.429Z,13.52
2017-06-06T01:09:52.005Z,13.5
2017-06-06T01:10:32.546Z,13.46
2017-06-06T01:11:13.089Z,13.39
2017-06-06T01:11:54.680Z,13.49
2017-06-06T01:12:35.230Z,13.42
2017-06-06T01:13:15.790Z,13.37
2017-06-06T01:13:56.434Z,13.37
2017-06-06T01:14:36.993Z,13.38
2017-06-06T01:15:17.539Z,13.42
2017-06-06T01:15:58.161Z,13.38
2017-06-06T01:16:38.728Z,13.38
2017-06-06T01:17:19.363Z,13.39
2017-06-06T01:17:59.947Z,13.38
2017-06-06T01:18:40.661Z,13.38
2017-06-06T01:19:21.109Z,13.41
2017-06-06T01:20:01.702Z,13.38
2017-06-06T01:20:42.295Z,13.3
2017-06-06T01:21:22.886Z,13.33
2017-06-06T01:22:03.529Z,13.38
2017-06-06T01:22:44.121Z,13.31
2017-06-06T01:23:24.718Z,13.35
2017-06-06T01:24:05.245Z,13.28
2017-06-06T01:24:45.820Z,13.31
2017-06-06T01:25:26.396Z,13.3
2017-06-06T01:26:07.957Z,13.28
2017-06-06T01:26:49.527Z,13.3
2017-06-06T01:27:30.074Z,13.37
2017-06-06T01:28:10.663Z,13.35
2017-06-06T01:28:51.274Z,13.31
2017-06-06T01:29:31.832Z,13.28
2017-06-06T01:30:12.463Z,13.3
2017-06-06T01:30:53.009Z,13.3
2017-06-06T01:31:33.593Z,13.3
2017-06-06T01:32:14.221Z,13.37
2017-06-06T01:32:54.759Z,13.31
2017-06-06T01:33:35.362Z,13.27
2017-06-06T01:34:15.969Z,13.31
2017-06-06T01:34:56.543Z,13.35
2017-06-06T01:35:37.108Z,13.37
2017-06-06T01:36:18.681Z,13.35
2017-06-06T01:36:59.315Z,13.42
2017-06-06T01:37:39.868Z,13.39
2017-06-06T01:38:20.455Z,13.41
2017-06-06T01:39:01.093Z,13.49
2017-06-06T01:39:41.711Z,13.46
2017-06-06T01:40:22.256Z,13.56
2017-06-06T01:41:02.829Z,13.53
2017-06-06T01:41:43.468Z,13.54
2017-06-06T01:42:24.019Z,13.57
2017-06-06T01:43:04.595Z,13.6
2017-06-06T01:43:45.224Z,13.63
2017-06-06T01:44:25.791Z,13.57
2017-06-06T01:45:06.363Z,13.54
2017-06-06T01:45:47.040Z,13.67
2017-06-06T01:46:27.629Z,13.65
2017-06-06T01:47:08.151Z,13.68
2017-06-06T01:47:48.837Z,13.74
2017-06-06T01:48:29.339Z,13.75
2017-06-06T01:49:09.936Z,13.86
2017-06-06T01:49:50.472Z,13.81
2017-06-06T01:50:31.070Z,13.85
2017-06-06T01:51:12.680Z,13.81
2017-06-06T01:51:53.269Z,13.85
2017-06-06T01:52:33.871Z,13.93
2017-06-06T01:53:14.507Z,13.89
2017-06-06T01:53:55.174Z,13.97
2017-06-06T01:54:35.771Z,13.96
2017-06-06T01:55:16.292Z,13.99
2017-06-06T01:55:56.881Z,14
2017-06-06T01:56:37.453Z,13.95
2017-06-06T01:57:18.000Z,13.96
2017-06-06T01:57:58.538Z,13.93
2017-06-06T01:58:39.105Z,14.03
2017-06-06T01:59:19.775Z,13.95
2017-06-06T02:00:00.386Z,13.97
2017-06-06T02:00:40.904Z,13.97
2017-06-06T02:01:21.514Z,13.97
2017-06-06T02:02:02.129Z,13.95
2017-06-06T02:02:42.683Z,13.93
2017-06-06T02:03:23.348Z,13.79
2017-06-06T02:04:04.016Z,13.85
2017-06-06T02:04:44.537Z,13.87
2017-06-06T02:05:25.126Z,13.83
2017-06-06T02:06:05.833Z,13.83
2017-06-06T02:06:46.268Z,13.75
2017-06-06T02:07:27.888Z,13.72
2017-06-06T02:08:09.446Z,13.78
2017-06-06T02:08:49.955Z,13.77
2017-06-06T02:09:30.585Z,13.72
2017-06-06T02:10:11.285Z,13.68
2017-06-06T02:10:51.724Z,13.7
2017-06-06T02:11:32.316Z,13.65
2017-06-06T02:12:12.950Z,13.65
2017-06-06T02:12:53.468Z,13.67
2017-06-06T02:13:34.048Z,13.71
2017-06-06T02:14:14.604Z,13.62
2017-06-06T02:14:55.152Z,13.63
2017-06-06T02:15:35.708Z,13.65
2017-06-06T02:16:16.257Z,13.65
2017-06-06T02:16:56.806Z,13.59
2017-06-06T02:17:37.360Z,13.57
2017-06-06T02:18:18.008Z,13.63
2017-06-06T02:18:58.665Z,13.6
2017-06-06T02:19:39.213Z,13.57
2017-06-06T02:20:19.766Z,13.6
2017-06-06T02:21:00.416Z,13.59
2017-06-06T02:21:40.969Z,13.63
2017-06-06T02:22:22.541Z,13.57
2017-06-06T02:23:03.102Z,13.63
2017-06-06T02:23:43.746Z,13.56
2017-06-06T02:24:25.346Z,13.62
2017-06-06T02:25:05.834Z,13.59
2017-06-06T02:25:46.433Z,13.63
2017-06-06T02:26:27.036Z,13.57
2017-06-06T02:27:08.628Z,13.68
2017-06-06T02:27:49.144Z,13.65
2017-06-06T02:28:29.765Z,13.68
2017-06-06T02:29:10.341Z,13.62
2017-06-06T02:29:51.961Z,13.67
2017-06-06T02:30:32.496Z,13.63
2017-06-06T02:31:13.128Z,13.67
2017-06-06T02:31:53.781Z,13.79
2017-06-06T02:32:34.372Z,13.68
2017-06-06T02:33:14.910Z,13.71
2017-06-06T02:33:55.481Z,13.75
2017-06-06T02:34:36.078Z,13.79
2017-06-06T02:35:16.729Z,13.79
2017-06-06T02:35:57.282Z,13.83
2017-06-06T02:36:37.934Z,13.74
2017-06-06T02:37:18.502Z,13.81
2017-06-06T02:37:59.142Z,13.75
2017-06-06T02:38:39.800Z,13.79
2017-06-06T02:39:20.449Z,13.85
2017-06-06T02:40:01.043Z,13.85
2017-06-06T02:40:41.561Z,13.85
2017-06-06T02:41:22.155Z,13.85
2017-06-06T02:42:03.785Z,13.85
2017-06-06T02:42:44.364Z,13.86
2017-06-06T02:43:24.944Z,13.93
2017-06-06T02:44:05.523Z,13.93
2017-06-06T02:44:46.116Z,13.87
2017-06-06T02:45:26.647Z,13.93
2017-06-06T02:46:07.246Z,13.93
2017-06-06T02:46:48.796Z,13.9
2017-06-06T02:47:29.333Z,13.9
2017-06-06T02:48:09.939Z,13.97
2017-06-06T02:48:50.553Z,13.93
2017-06-06T02:49:31.063Z,13.95
2017-06-06T02:50:12.718Z,13.81
2017-06-06T02:50:54.350Z,13.95
2017-06-06T02:51:34.966Z,14.05
2017-06-06T02:52:15.559Z,13.95
2017-06-06T02:52:56.108Z,13.99
2017-06-06T02:53:36.656Z,13.96
2017-06-06T02:54:17.259Z,13.99
2017-06-06T02:54:58.883Z,13.96
2017-06-06T02:55:39.445Z,14
2017-06-06T02:56:20.013Z,14.05
2017-06-06T02:57:00.565Z,14.04
2017-06-06T02:57:41.111Z,14.05
2017-06-06T02:58:21.677Z,14.04
2017-06-06T02:59:02.202Z,14.08
2017-06-06T02:59:42.755Z,14.05
2017-06-06T03:00:24.385Z,14.17
2017-06-06T03:01:04.964Z,14.1
2017-06-06T03:01:45.496Z,14.1
2017-06-06T03:02:26.114Z,14.15
2017-06-06T03:03:06.676Z,14.15
2017-06-06T03:03:47.268Z,14.17
2017-06-06T03:04:27.794Z,14.22
2017-06-06T03:05:08.430Z,14.17
2017-06-06T03:05:49.023Z,14.15
2017-06-06T03:06:29.612Z,14.23
2017-06-06T03:07:10.260Z,14.25
2017-06-06T03:07:50.880Z,14.28
2017-06-06T03:08:31.401Z,14.26
2017-06-06T03:09:12.020Z,14.25
2017-06-06T03:09:52.638Z,14.29
2017-06-06T03:10:33.181Z,14.36
2017-06-06T03:11:13.737Z,14.33
2017-06-06T03:11:54.287Z,14.3
2017-06-06T03:12:34.840Z,14.33
2017-06-06T03:13:15.489Z,14.41
2017-06-06T03:13:56.041Z,14.37
2017-06-06T03:14:36.565Z,14.41
2017-06-06T03:15:17.179Z,14.45
2017-06-06T03:15:57.742Z,14.47
2017-06-06T03:16:38.349Z,14.41
2017-06-06T03:17:18.901Z,14.41
2017-06-06T03:17:59.463Z,14.37
2017-06-06T03:18:40.052Z,14.45
2017-06-06T03:19:20.651Z,14.37
2017-06-06T03:20:01.202Z,14.37
2017-06-06T03:20:41.750Z,14.41
2017-06-06T03:21:22.305Z,14.47
2017-06-06T03:22:02.854Z,14.41
2017-06-06T03:22:43.404Z,14.44
2017-06-06T03:23:23.956Z,14.37
2017-06-06T03:24:04.510Z,14.4
2017-06-06T03:24:45.055Z,14.41
2017-06-06T03:25:25.609Z,14.41
2017-06-06T03:26:06.263Z,14.37
2017-06-06T03:26:46.809Z,14.43
2017-06-06T03:27:27.465Z,14.43
2017-06-06T03:28:08.014Z,14.41
2017-06-06T03:28:48.576Z,14.44
2017-06-06T03:29:29.224Z,14.4
2017-06-06T03:30:09.773Z,14.48
2017-06-06T03:30:50.350Z,14.44
2017-06-06T03:31:30.975Z,14.45
2017-06-06T03:32:11.526Z,14.41
2017-06-06T03:32:53.128Z,14.45
2017-06-06T03:33:33.754Z,14.45
2017-06-06T03:34:14.303Z,14.41
2017-06-06T03:34:54.862Z,14.45
2017-06-06T03:35:35.465Z,14.47
2017-06-06T03:36:16.092Z,14.44
2017-06-06T03:36:56.734Z,14.45
2017-06-06T03:37:37.295Z,14.5
2017-06-06T03:38:17.871Z,14.54
2017-06-06T03:38:58.461Z,14.45
2017-06-06T03:39:38.993Z,14.55
2017-06-06T03:40:19.599Z,14.58
2017-06-06T03:41:01.270Z,14.58
2017-06-06T03:41:41.819Z,14.62
2017-06-06T03:42:22.372Z,14.59
2017-06-06T03:43:02.905Z,14.59
2017-06-06T03:43:44.505Z,14.55
2017-06-06T03:44:25.151Z,14.62
2017-06-06T03:45:05.733Z,14.6
2017-06-06T03:45:46.324Z,14.69
2017-06-06T03:46:26.917Z,14.66
2017-06-06T03:47:07.558Z,14.68
2017-06-06T03:47:48.145Z,14.65
2017-06-06T03:48:28.733Z,14.7
2017-06-06T03:49:09.271Z,14.79
2017-06-06T03:49:49.839Z,14.7
2017-06-06T03:50:30.445Z,14.77
2017-06-06T03:51:11.035Z,14.7
2017-06-06T03:51:51.555Z,14.7
2017-06-06T03:52:32.158Z,14.73
2017-06-06T03:53:12.746Z,14.79
2017-06-06T03:53:53.353Z,14.82
2017-06-06T03:54:33.930Z,14.81
2017-06-06T03:55:14.562Z,14.72
2017-06-06T03:55:55.150Z,14.81
2017-06-06T03:56:35.746Z,14.89
2017-06-06T03:57:16.285Z,14.88
2017-06-06T03:57:56.874Z,14.89
2017-06-06T03:58:37.456Z,14.92
2017-06-06T03:59:18.051Z,14.97
2017-06-06T03:59:58.607Z,14.94
2017-06-06T04:00:40.211Z,14.99
2017-06-06T04:01:20.828Z,15
2017-06-06T04:02:01.351Z,14.99
2017-06-06T04:02:41.971Z,15.02
2017-06-06T04:03:22.688Z,15.11
2017-06-06T04:04:03.192Z,15.19
2017-06-06T04:04:43.805Z,15.15
2017-06-06T04:05:24.446Z,15.22
2017-06-06T04:06:06.324Z,15.27
2017-06-06T04:06:46.872Z,15.28
2017-06-06T04:07:27.423Z,15.39
2017-06-06T04:08:07.977Z,15.4
2017-06-06T04:08:48.524Z,15.42
2017-06-06T04:09:29.075Z,15.49
2017-06-06T04:10:09.628Z,15.51
2017-06-06T04:10:50.294Z,15.57
2017-06-06T04:11:31.859Z,15.57
2017-06-06T04:12:12.426Z,15.62
2017-06-06T04:12:52.952Z,15.68
2017-06-06T04:13:33.509Z,15.64
2017-06-06T04:14:14.062Z,15.67
2017-06-06T04:14:54.586Z,15.68
2017-06-06T04:15:35.179Z,15.62
2017-06-06T04:16:15.728Z,15.75
2017-06-06T04:16:56.305Z,15.67
2017-06-06T04:17:36.948Z,15.76
2017-06-06T04:18:17.507Z,15.83
2017-06-06T04:18:58.064Z,15.88
2017-06-06T04:19:38.691Z,15.73
2017-06-06T04:20:19.236Z,15.84
2017-06-06T04:20:59.791Z,15.83
2017-06-06T04:21:40.355Z,15.84
2017-06-06T04:22:20.891Z,15.86
2017-06-06T04:23:01.440Z,15.92
2017-06-06T04:23:41.976Z,15.91
2017-06-06T04:24:22.504Z,15.88
2017-06-06T04:25:03.073Z,15.94
2017-06-06T04:25:43.635Z,15.98
2017-06-06T04:26:24.204Z,16.04
2017-06-06T04:27:04.724Z,16.05
2017-06-06T04:27:45.251Z,16.08
2017-06-06T04:28:25.867Z,16.12
2017-06-06T04:29:06.477Z,16.15
2017-06-06T04:29:47.028Z,16.16
2017-06-06T04:30:28.643Z,16.13
2017-06-06T04:31:09.257Z,16.2
2017-06-06T04:31:49.776Z,16.15
2017-06-06T04:32:30.377Z,16.33
2017-06-06T04:33:10.911Z,16.38
2017-06-06T04:33:51.446Z,16.41
2017-06-06T04:34:32.030Z,16.32
2017-06-06T04:35:12.670Z,16.36
2017-06-06T04:35:53.222Z,16.51
2017-06-06T04:36:33.770Z,16.47
2017-06-06T04:37:14.340Z,16.38
2017-06-06T04:37:54.974Z,16.5
2017-06-06T04:38:36.451Z,16.47
2017-06-06T04:39:16.988Z,16.42
2017-06-06T04:39:57.639Z,16.42
2017-06-06T04:40:38.202Z,16.42
2017-06-06T04:41:18.848Z,16.36
2017-06-06T04:41:59.502Z,16.46
2017-06-06T04:42:40.057Z,16.47
2017-06-06T04:43:20.607Z,16.38
2017-06-06T04:44:01.158Z,16.33
2017-06-06T04:44:41.676Z,16.49
2017-06-06T04:45:22.285Z,16.46
2017-06-06T04:46:02.912Z,16.35
2017-06-06T04:46:43.430Z,16.38
2017-06-06T04:47:24.035Z,16.43
2017-06-06T04:48:04.672Z,16.35
2017-06-06T04:48:45.235Z,16.41
2017-06-06T04:49:26.428Z,16.36
2017-06-06T04:50:08.060Z,16.46
2017-06-06T04:50:48.602Z,16.33
2017-06-06T04:51:29.151Z,16.46
2017-06-06T04:52:10.731Z,16.38
2017-06-06T04:52:51.283Z,16.38
2017-06-06T04:53:31.828Z,16.43
2017-06-06T04:54:12.384Z,16.41
2017-06-06T04:54:53.038Z,16.51
2017-06-06T04:55:33.691Z,16.42
2017-06-06T04:56:14.245Z,16.5
2017-06-06T04:56:54.804Z,16.42
2017-06-06T04:57:35.340Z,16.47
2017-06-06T04:58:15.900Z,16.5
2017-06-06T04:58:56.542Z,16.46
2017-06-06T04:59:37.082Z,16.49
2017-06-06T05:00:17.645Z,16.47
2017-06-06T05:00:58.313Z,16.47
2017-06-06T05:01:38.863Z,16.43
2017-06-06T05:02:19.501Z,16.43
2017-06-06T05:03:00.054Z,16.46
2017-06-06T05:03:40.710Z,16.5
2017-06-06T05:04:21.358Z,16.46
2017-06-06T05:05:01.888Z,16.51
2017-06-06T05:05:42.497Z,16.43
2017-06-06T05:06:23.066Z,16.46
2017-06-06T05:07:03.680Z,16.47
2017-06-06T05:07:44.182Z,16.56
2017-06-06T05:08:25.827Z,16.49
2017-06-06T05:09:06.406Z,16.58
2017-06-06T05:09:46.996Z,16.56
2017-06-06T05:10:28.579Z,16.57
2017-06-06T05:11:09.222Z,16.57
2017-06-06T05:11:49.775Z,16.69
2017-06-06T05:12:30.322Z,16.68
2017-06-06T05:13:10.976Z,16.78
2017-06-06T05:13:51.525Z,16.79
2017-06-06T05:14:32.054Z,16.87
2017-06-06T05:15:12.580Z,16.94
2017-06-06T05:15:53.204Z,16.91
2017-06-06T05:16:33.781Z,16.97
2017-06-06T05:17:14.383Z,17.05
2017-06-06T05:17:54.914Z,17.12
2017-06-06T05:18:35.516Z,17.12
2017-06-06T05:19:16.094Z,17.26
2017-06-06T05:19:56.638Z,17.39
2017-06-06T05:20:37.254Z,17.42
2017-06-06T05:21:17.887Z,17.49
2017-06-06T05:21:58.418Z,17.51
2017-06-06T05:22:39.024Z,17.52
2017-06-06T05:23:19.657Z,17.65
2017-06-06T05:24:00.178Z,17.7
2017-06-06T05:24:40.771Z,17.79
2017-06-06T05:25:21.397Z,17.86
2017-06-06T05:26:02.971Z,17.87
2017-06-06T05:26:43.520Z,17.9
2017-06-06T05:27:25.097Z,17.94
2017-06-06T05:28:05.654Z,18.01
2017-06-06T05:28:46.219Z,18.05
2017-06-06T05:29:26.853Z,18.03
2017-06-06T05:30:07.392Z,17.97
2017-06-06T05:30:47.979Z,18.04
2017-06-06T05:31:28.569Z,18.1
2017-06-06T05:32:09.176Z,18.01
2017-06-06T05:32:49.730Z,18.05
2017-06-06T05:33:30.394Z,18.05
2017-06-06T05:34:10.977Z,18.05
2017-06-06T05:34:51.571Z,18.03
2017-06-06T05:35:32.105Z,18.03
2017-06-06T05:36:12.736Z,18.03
2017-06-06T05:36:54.265Z,18.05
2017-06-06T05:37:34.716Z,17.98
2017-06-06T05:38:15.278Z,18.01
2017-06-06T05:38:55.854Z,18.05
2017-06-06T05:39:36.444Z,18.19
2017-06-06T05:40:16.959Z,18.22
2017-06-06T05:40:58.599Z,18.28
2017-06-06T05:41:39.331Z,18.28
2017-06-06T05:42:20.934Z,18.31
2017-06-06T05:43:01.475Z,18.44
2017-06-06T05:43:42.017Z,18.47
2017-06-06T05:44:22.587Z,18.49
2017-06-06T05:45:03.167Z,18.73
2017-06-06T05:45:43.783Z,18.71
2017-06-06T05:46:24.332Z,18.77
2017-06-06T05:47:04.872Z,18.78
2017-06-06T05:47:45.439Z,18.84
2017-06-06T05:48:26.115Z,18.95
2017-06-06T05:49:06.742Z,18.95
2017-06-06T05:49:47.335Z,18.95
2017-06-06T05:50:27.977Z,18.98
2017-06-06T05:51:08.572Z,19.08
2017-06-06T05:51:49.105Z,19.11
2017-06-06T05:52:29.702Z,19.19
2017-06-06T05:53:10.276Z,19.22
2017-06-06T05:53:50.875Z,19.21
2017-06-06T05:54:31.468Z,19.3
2017-06-06T05:55:12.008Z,19.34
2017-06-06T05:55:52.631Z,19.34
2017-06-06T05:56:33.147Z,19.4
2017-06-06T05:57:13.745Z,19.45
2017-06-06T05:57:55.301Z,19.51
2017-06-06T05:58:35.937Z,19.48
2017-06-06T05:59:16.539Z,19.51
2017-06-06T05:59:57.159Z,19.47
2017-06-06T06:00:38.834Z,19.51
2017-06-06T06:01:19.383Z,19.47
2017-06-06T06:01:59.935Z,19.39
2017-06-06T06:02:40.453Z,19.4
2017-06-06T06:03:20.975Z,19.4
2017-06-06T06:04:01.556Z,19.51
2017-06-06T06:04:43.117Z,19.55
2017-06-06T06:05:23.677Z,19.59
2017-06-06T06:06:04.322Z,19.62
2017-06-06T06:06:44.869Z,19.64
2017-06-06T06:07:25.532Z,19.55
2017-06-06T06:08:06.081Z,19.7
2017-06-06T06:08:46.638Z,19.74
2017-06-06T06:09:27.285Z,19.89
2017-06-06T06:10:08.006Z,19.85
2017-06-06T06:10:48.690Z,19.92
2017-06-06T06:11:29.222Z,19.96
2017-06-06T06:12:09.888Z,20.02
2017-06-06T06:12:50.507Z,20.06
2017-06-06T06:13:31.077Z,20.03
2017-06-06T06:14:11.618Z,20.16
2017-06-06T06:14:52.194Z,20.25
2017-06-06T06:15:32.819Z,20.19
2017-06-06T06:16:13.398Z,20.37
2017-06-06T06:16:54.020Z,20.31
2017-06-06T06:17:34.557Z,20.43
2017-06-06T06:18:15.138Z,20.41
2017-06-06T06:18:55.771Z,20.41
2017-06-06T06:19:37.358Z,20.52
2017-06-06T06:20:17.896Z,20.58
2017-06-06T06:20:58.442Z,20.43
2017-06-06T06:21:39.014Z,20.62
2017-06-06T06:22:19.550Z,20.7
2017-06-06T06:23:00.110Z,20.74
2017-06-06T06:23:40.660Z,20.82
2017-06-06T06:24:21.311Z,20.8
2017-06-06T06:25:02.872Z,20.96
2017-06-06T06:25:43.506Z,20.96
2017-06-06T06:26:24.037Z,20.99
2017-06-06T06:27:04.680Z,20.95
2017-06-06T06:27:45.264Z,20.99
2017-06-06T06:28:25.773Z,20.97
2017-06-06T06:29:07.294Z,20.92
2017-06-06T06:29:47.939Z,20.9
2017-06-06T06:30:28.487Z,20.9
2017-06-06T06:31:10.102Z,20.9
2017-06-06T06:31:50.785Z,20.8
2017-06-06T06:32:31.372Z,20.77
2017-06-06T06:33:11.892Z,20.7
2017-06-06T06:33:52.506Z,20.72
2017-06-06T06:34:33.100Z,20.62
2017-06-06T06:35:13.678Z,20.59
2017-06-06T06:35:54.203Z,20.47
2017-06-06T06:36:34.802Z,20.48
2017-06-06T06:37:15.454Z,20.52
2017-06-06T06:37:56.013Z,20.48
2017-06-06T06:38:37.588Z,20.44
2017-06-06T06:39:18.392Z,20.37
2017-06-06T06:39:58.984Z,20.43
2017-06-06T06:40:39.548Z,20.37
2017-06-06T06:41:20.192Z,20.4
2017-06-06T06:42:00.735Z,20.36
2017-06-06T06:42:41.322Z,20.34
2017-06-06T06:43:21.952Z,20.25
2017-06-06T06:44:02.590Z,20.26
2017-06-06T06:44:43.245Z,20.29
2017-06-06T06:45:23.754Z,20.24
2017-06-06T06:46:04.313Z,20.25
2017-06-06T06:46:44.916Z,20.22
2017-06-06T06:47:25.531Z,20.26
2017-06-06T06:48:06.062Z,20.24
2017-06-06T06:48:46.651Z,20.24
2017-06-06T06:49:27.293Z,20.14
2017-06-06T06:50:07.840Z,20.13
2017-06-06T06:50:48.411Z,20.14
2017-06-06T06:51:29.075Z,20.14
2017-06-06T06:52:09.720Z,20.13
2017-06-06T06:52:50.249Z,20.1
2017-06-06T06:53:30.812Z,20.13
2017-06-06T06:54:11.420Z,20.03
2017-06-06T06:54:52.022Z,20.07
2017-06-06T06:55:32.564Z,20.03
2017-06-06T06:56:13.130Z,20.03
2017-06-06T06:56:54.675Z,20
2017-06-06T06:57:35.215Z,20
2017-06-06T06:58:16.852Z,20
2017-06-06T06:58:57.381Z,19.99
2017-06-06T06:59:37.892Z,19.99
2017-06-06T07:00:18.505Z,20
2017-06-06T07:00:59.125Z,20.06
2017-06-06T07:01:39.659Z,20.07
2017-06-06T07:02:20.226Z,20.04
2017-06-06T07:03:00.811Z,20.06
2017-06-06T07:03:41.669Z,20.14
2017-06-06T07:04:22.398Z,20.14
2017-06-06T07:05:03.044Z,20.31
2017-06-06T07:05:43.696Z,20.18
2017-06-06T07:06:25.282Z,20.28
2017-06-06T07:07:05.953Z,20.4
2017-06-06T07:07:46.579Z,20.34
2017-06-06T07:08:27.123Z,20.47
2017-06-06T07:09:07.694Z,20.4
2017-06-06T07:09:48.279Z,20.4
2017-06-06T07:10:28.947Z,20.36
2017-06-06T07:11:10.651Z,20.4
2017-06-06T07:11:51.280Z,20.4
2017-06-06T07:12:33.928Z,20.41
2017-06-06T07:13:14.546Z,20.4
2017-06-06T07:13:55.203Z,20.43
2017-06-06T07:14:35.822Z,20.37
2017-06-06T07:15:16.375Z,20.29
2017-06-06T07:15:58.096Z,20.31
2017-06-06T07:16:38.726Z,20.26
2017-06-06T07:17:19.418Z,20.29
2017-06-06T07:18:00.174Z,20.13
2017-06-06T07:18:40.909Z,20.07
2017-06-06T07:19:21.513Z,20.14
2017-06-06T07:20:02.130Z,20.1
2017-06-06T07:20:42.707Z,20.13
2017-06-06T07:21:24.408Z,20.19
2017-06-06T07:22:05.071Z,20.16
2017-06-06T07:22:45.686Z,20.11
2017-06-06T07:23:26.388Z,20.11
2017-06-06T07:24:06.951Z,20.24
2017-06-06T07:24:47.619Z,20.24
2017-06-06T07:25:28.292Z,20.29
2017-06-06T07:26:09.073Z,20.19
2017-06-06T07:26:49.728Z,20.25
2017-06-06T07:27:30.348Z,20.41
2017-06-06T07:28:11.032Z,20.36
2017-06-06T07:28:51.691Z,20.47
2017-06-06T07:29:33.405Z,20.5
2017-06-06T07:30:14.018Z,20.56
2017-06-06T07:30:54.692Z,20.59
2017-06-06T07:31:35.483Z,20.66
2017-06-06T07:32:16.051Z,20.74
2017-06-06T07:32:56.742Z,20.7
2017-06-06T07:33:37.395Z,20.87
2017-06-06T07:34:19.002Z,20.84
2017-06-06T07:34:59.623Z,20.95
2017-06-06T07:35:40.298Z,21.03
2017-06-06T07:36:21.987Z,21.05
2017-06-06T07:37:02.595Z,21.17
2017-06-06T07:37:43.190Z,21.21
2017-06-06T07:38:23.793Z,21.07
2017-06-06T07:39:04.555Z,21.15
2017-06-06T07:39:47.293Z,21.22
2017-06-06T07:40:28.874Z,21.32
2017-06-06T07:41:09.548Z,21.35
2017-06-06T07:41:50.282Z,21.46
2017-06-06T07:42:30.907Z,21.45
2017-06-06T07:43:11.561Z,21.45
2017-06-06T07:43:52.257Z,21.52
2017-06-06T07:44:32.813Z,21.58
2017-06-06T07:45:13.452Z,21.67
2017-06-06T07:45:54.012Z,21.61
2017-06-06T07:46:34.612Z,21.61
2017-06-06T07:47:15.244Z,21.57
2017-06-06T07:47:55.806Z,21.62
2017-06-06T07:48:36.393Z,21.61
2017-06-06T07:49:17.046Z,21.57
2017-06-06T07:49:57.588Z,21.62
2017-06-06T07:50:38.211Z,21.5
2017-06-06T07:51:18.763Z,21.51
2017-06-06T07:51:59.411Z,21.52
2017-06-06T07:52:39.941Z,21.45
2017-06-06T07:53:20.556Z,21.6
2017-06-06T07:54:01.103Z,21.48
2017-06-06T07:54:41.801Z,21.5
2017-06-06T07:55:22.415Z,21.48
2017-06-06T07:56:03.063Z,21.46
2017-06-06T07:56:43.722Z,21.52
2017-06-06T07:57:24.395Z,21.5
2017-06-06T07:58:06.054Z,21.5
2017-06-06T07:58:46.701Z,21.46
2017-06-06T07:59:27.253Z,21.55
2017-06-06T08:00:07.803Z,21.5
2017-06-06T08:00:48.349Z,21.51
2017-06-06T08:01:28.898Z,21.64
2017-06-06T08:02:09.550Z,21.61
2017-06-06T08:02:50.114Z,21.61
2017-06-06T08:03:30.652Z,21.67
2017-06-06T08:04:11.204Z,21.58
2017-06-06T08:04:51.959Z,21.67
2017-06-06T08:05:32.503Z,21.69
2017-06-06T08:06:13.151Z,21.72
2017-06-06T08:06:53.770Z,21.75
2017-06-06T08:07:34.367Z,21.79
2017-06-06T08:08:14.892Z,21.82
2017-06-06T08:08:55.461Z,21.83
2017-06-06T08:09:36.041Z,21.8
2017-06-06T08:10:16.727Z,21.88
2017-06-06T08:10:57.261Z,21.91
2017-06-06T08:11:37.899Z,21.91
2017-06-06T08:12:18.452Z,21.83
2017-06-06T08:12:59.055Z,21.8
2017-06-06T08:13:39.585Z,21.76
2017-06-06T08:14:21.191Z,21.76
2017-06-06T08:15:01.769Z,21.66
2017-06-06T08:15:42.364Z,21.69
2017-06-06T08:16:23.039Z,21.69
2017-06-06T08:17:03.621Z,21.62
2017-06-06T08:17:44.184Z,21.61
2017-06-06T08:18:24.765Z,21.51
2017-06-06T08:19:05.276Z,21.51
2017-06-06T08:19:45.888Z,21.35
2017-06-06T08:20:26.487Z,21.33
2017-06-06T08:21:07.076Z,21.22
2017-06-06T08:21:47.646Z,21.21
2017-06-06T08:22:28.193Z,21.17
2017-06-06T08:23:08.789Z,21.07
2017-06-06T08:23:49.379Z,21.02
2017-06-06T08:24:29.922Z,20.95
2017-06-06T08:25:10.611Z,20.9
2017-06-06T08:25:51.192Z,20.95
2017-06-06T08:26:32.807Z,20.88
2017-06-06T08:27:13.330Z,20.85
2017-06-06T08:27:53.956Z,20.92
2017-06-06T08:28:34.519Z,20.92
2017-06-06T08:29:15.112Z,21.05
2017-06-06T08:29:55.712Z,20.99
2017-06-06T08:30:36.357Z,21.06
2017-06-06T08:31:17.920Z,21.03
2017-06-06T08:31:58.499Z,20.96
2017-06-06T08:32:39.010Z,21.02
2017-06-06T08:33:19.587Z,20.99
2017-06-06T08:34:00.194Z,21.02
2017-06-06T08:34:40.768Z,21.02
2017-06-06T08:35:21.347Z,20.96
2017-06-06T08:36:01.876Z,20.92
2017-06-06T08:36:42.525Z,20.95
2017-06-06T08:37:23.056Z,20.93
2017-06-06T08:38:03.616Z,20.84
2017-06-06T08:38:44.896Z,20.87
2017-06-06T08:39:25.426Z,20.8
2017-06-06T08:40:05.970Z,20.81
2017-06-06T08:40:46.524Z,20.77
2017-06-06T08:41:27.070Z,20.69
2017-06-06T08:42:07.651Z,20.65
2017-06-06T08:42:49.176Z,20.58
2017-06-06T08:43:29.700Z,20.48
2017-06-06T08:44:10.222Z,20.47
2017-06-06T08:44:50.739Z,20.52
2017-06-06T08:45:31.328Z,20.41
2017-06-06T08:46:12.992Z,20.39
2017-06-06T08:46:55.531Z,20.39